Time;durP1;ratioP1;P1;durP2;ratioP2;P2;SDS_P1;SDS_P2;PMS_P1;PMS_P2;Temp;Humidity;BMP_temperature;BMP_pressure;BME280_temperature;BME280_humidity;BME280_pressure;Samples;Min_cycle;Max_cycle;Signal;HPM_P1;HPM_P2
2023/06/02 00:00:39;;;;;;;3.78;2.50;;;;;;;16.53;30.25;101602.59;5070141;28;20498;-81
2023/06/02 00:03:08;;;;;;;3.85;2.40;;;;;;;16.52;30.50;101606.38;5050801;28;20048;-81
2023/06/02 00:05:38;;;;;;;5.40;2.75;;;;;;;16.48;30.20;101602.22;5048330;28;20071;-81
2023/06/02 00:08:08;;;;;;;3.65;2.45;;;;;;;16.49;29.89;101612.25;5053728;28;20041;-81
2023/06/02 00:10:36;;;;;;;4.35;2.35;;;;;;;16.45;30.42;101605.28;5052693;28;20056;-80
2023/06/02 00:13:04;;;;;;;4.30;3.00;;;;;;;16.42;30.32;101600.03;5061445;28;20045;-80
2023/06/02 00:15:33;;;;;;;4.55;3.00;;;;;;;16.40;29.96;101606.78;5044388;28;20045;-81
2023/06/02 00:18:01;;;;;;;5.05;3.65;;;;;;;16.36;30.27;101600.66;5045531;28;20041;-81
2023/06/02 00:20:31;;;;;;;4.78;3.75;;;;;;;16.34;30.40;101601.84;5044709;28;20052;-80
2023/06/02 00:23:00;;;;;;;5.97;4.45;;;;;;;16.29;30.26;101604.19;5044371;28;20041;-80
2023/06/02 00:25:30;;;;;;;5.93;3.90;;;;;;;16.28;29.71;101608.84;5043913;28;20579;-81
2023/06/02 00:27:58;;;;;;;5.50;3.85;;;;;;;16.23;29.92;101602.94;5040370;28;20049;-81
2023/06/02 00:30:26;;;;;;;5.80;3.80;;;;;;;16.20;30.41;101609.63;5040121;28;20100;-80
2023/06/02 00:32:55;;;;;;;4.78;3.80;;;;;;;16.20;30.22;101608.75;5048415;28;20047;-80
2023/06/02 00:35:23;;;;;;;6.47;4.28;;;;;;;16.15;30.10;101600.91;5041098;28;20063;-82
2023/06/02 00:37:52;;;;;;;6.45;4.57;;;;;;;16.16;30.23;101607.31;5038994;28;20041;-81
2023/06/02 00:40:21;;;;;;;5.78;4.63;;;;;;;16.15;30.26;101602.81;5041567;28;20045;-80
2023/06/02 00:42:50;;;;;;;6.68;5.05;;;;;;;16.16;29.92;101610.94;5040032;28;20080;-80
2023/06/02 00:45:18;;;;;;;7.38;5.72;;;;;;;16.14;29.91;101603.81;5056901;28;20053;-80
2023/06/02 00:47:46;;;;;;;7.20;5.25;;;;;;;16.13;30.33;101608.47;5041860;28;20142;-80
2023/06/02 00:50:14;;;;;;;8.65;5.78;;;;;;;16.13;29.89;101618.66;5065512;28;20053;-80
2023/06/02 00:52:42;;;;;;;7.35;5.38;;;;;;;16.12;30.26;101612.25;5057705;28;20747;-80
2023/06/02 00:55:11;;;;;;;6.50;5.28;;;;;;;16.09;29.96;101604.25;5045446;28;20056;-80
2023/06/02 00:57:40;;;;;;;6.68;5.50;;;;;;;16.09;29.75;101608.91;5039770;28;20041;-78
2023/06/02 01:00:10;;;;;;;6.38;5.35;;;;;;;16.09;29.83;101604.25;5054407;28;20041;-80
2023/06/02 01:02:38;;;;;;;6.10;5.13;;;;;;;16.06;29.71;101601.81;5043053;28;20041;-80
2023/06/02 01:05:12;;;;;;;6.05;4.72;;;;;;;16.06;29.82;101607.34;5030605;28;20103;-80
2023/06/02 01:07:44;;;;;;;7.68;6.22;;;;;;;16.05;30.05;101607.50;5038409;28;20123;-79
2023/06/02 01:10:15;;;;;;;8.25;5.63;;;;;;;16.03;29.71;101604.00;5040515;28;20061;-79
2023/06/02 01:12:44;;;;;;;7.43;6.30;;;;;;;16.02;29.65;101605.91;5039389;28;20124;-79
2023/06/02 01:15:13;;;;;;;8.18;6.63;;;;;;;16.03;30.20;101604.00;5038559;28;20057;-78
2023/06/02 01:17:45;;;;;;;8.18;6.80;;;;;;;16.01;30.15;101603.28;5033874;28;20135;-80
2023/06/02 01:20:14;;;;;;;7.88;7.07;;;;;;;15.99;30.21;101597.94;5042264;28;20044;-80
2023/06/02 01:22:46;;;;;;;6.80;5.90;;;;;;;16.03;30.02;101595.72;5041497;28;20545;-77
2023/06/02 01:25:20;;;;;;;7.72;6.00;;;;;;;16.01;30.12;101601.38;5035537;28;20041;-78
2023/06/02 01:27:48;;;;;;;8.30;6.85;;;;;;;15.99;29.85;101597.06;5053625;28;20053;-79
2023/06/02 01:30:16;;;;;;;8.10;6.82;;;;;;;15.98;29.61;101598.94;5042348;28;20041;-79
2023/06/02 01:32:54;;;;;;;8.30;7.28;;;;;;;16.01;29.71;101606.03;5040325;28;20536;-79
2023/06/02 01:35:24;;;;;;;8.65;7.25;;;;;;;15.98;30.07;101598.09;5047986;28;20219;-79
2023/06/02 01:37:56;;;;;;;10.77;8.10;;;;;;;15.97;29.74;101594.44;5063093;28;20539;-78
2023/06/02 01:40:28;;;;;;;7.63;6.82;;;;;;;15.95;29.62;101592.84;5058932;28;20054;-79
2023/06/02 01:43:00;;;;;;;9.10;7.20;;;;;;;15.93;29.50;101604.03;5036227;28;20045;-79
2023/06/02 01:45:30;;;;;;;9.55;7.40;;;;;;;15.93;29.65;101597.66;5057403;28;20044;-81
2023/06/02 01:48:02;;;;;;;8.70;7.18;;;;;;;15.94;29.83;101602.16;5059281;28;20048;-80
2023/06/02 01:50:32;;;;;;;9.93;7.50;;;;;;;15.91;29.96;101605.22;5060526;28;20041;-78
2023/06/02 01:53:01;;;;;;;9.90;7.75;;;;;;;15.87;29.83;101596.38;5060046;28;20128;-77
2023/06/02 01:55:30;;;;;;;10.10;7.78;;;;;;;15.86;29.63;101592.75;5041389;28;20106;-78
2023/06/02 01:58:00;;;;;;;8.30;7.40;;;;;;;15.83;29.60;101594.94;5040626;28;20037;-79
2023/06/02 02:00:28;;;;;;;10.45;7.22;;;;;;;15.82;29.40;101584.94;5040588;28;20045;-79
2023/06/02 02:02:58;;;;;;;10.13;6.50;;;;;;;15.79;30.02;101590.72;5065992;28;20045;-80
2023/06/02 02:05:26;;;;;;;7.85;6.35;;;;;;;15.77;29.54;101598.28;5062000;28;20048;-80
2023/06/02 02:07:54;;;;;;;7.93;6.50;;;;;;;15.72;29.48;101600.63;5066666;28;20048;-79
2023/06/02 02:10:22;;;;;;;7.20;6.28;;;;;;;15.69;29.95;101601.81;5063448;28;20087;-80
2023/06/02 02:12:51;;;;;;;8.77;6.55;;;;;;;15.67;29.52;101606.59;5061789;28;20511;-81
2023/06/02 02:15:19;;;;;;;7.30;6.13;;;;;;;15.61;29.87;101603.56;5054074;28;20076;-81
2023/06/02 02:17:47;;;;;;;7.68;5.75;;;;;;;15.59;29.71;101602.88;5044342;28;20125;-79
2023/06/02 02:20:17;;;;;;;8.75;5.57;;;;;;;15.56;30.09;101608.66;5060390;28;20475;-79
2023/06/02 02:22:46;;;;;;;8.20;5.78;;;;;;;15.51;29.97;101609.09;5039908;28;20041;-80
2023/06/02 02:25:15;;;;;;;9.18;5.45;;;;;;;15.48;29.66;101604.78;5036817;28;20056;-78
2023/06/02 02:27:43;;;;;;;8.10;5.40;;;;;;;15.47;30.09;101611.31;5036011;28;20102;-79
2023/06/02 02:30:13;;;;;;;6.05;4.80;;;;;;;15.45;29.87;101602.28;5036042;28;20061;-81
2023/06/02 02:32:44;;;;;;;7.55;5.18;;;;;;;15.46;30.32;101608.69;5038751;28;20361;-80
2023/06/02 02:35:12;;;;;;;6.28;5.05;;;;;;;15.43;30.32;101622.75;5042430;28;20415;-81
2023/06/02 02:37:43;;;;;;;6.97;5.00;;;;;;;15.43;29.94;101620.88;5037548;28;20079;-80
2023/06/02 02:40:23;;;;;;;6.85;4.80;;;;;;;15.42;29.83;101619.13;5041468;28;20045;-81
2023/06/02 02:42:51;;;;;;;8.00;5.22;;;;;;;15.43;30.14;101620.00;5051570;28;20037;-79
2023/06/02 02:45:21;;;;;;;5.55;4.28;;;;;;;15.46;30.12;101616.97;5034458;28;20055;-81
2023/06/02 02:47:49;;;;;;;6.40;4.47;;;;;;;15.43;30.00;101618.13;5044100;28;20583;-79
2023/06/02 02:50:17;;;;;;;7.05;4.70;;;;;;;15.44;30.19;101625.38;5038677;28;20061;-80
2023/06/02 02:52:45;;;;;;;5.40;4.50;;;;;;;15.44;29.74;101624.50;5059019;28;20051;-78
2023/06/02 02:55:14;;;;;;;7.30;4.63;;;;;;;15.43;29.96;101622.75;5039440;28;20045;-79
2023/06/02 02:57:43;;;;;;;7.35;4.60;;;;;;;15.42;30.07;101627.41;5038184;28;20062;-79
2023/06/02 03:00:13;;;;;;;7.38;4.55;;;;;;;15.42;30.08;101629.31;5055937;28;20037;-79
2023/06/02 03:02:46;;;;;;;6.97;4.20;;;;;;;15.43;30.13;101629.16;5035992;28;20044;-79
2023/06/02 03:05:14;;;;;;;7.32;4.75;;;;;;;15.37;29.64;101628.88;5032721;28;20671;-79
2023/06/02 03:07:44;;;;;;;5.82;4.00;;;;;;;15.37;30.03;101629.75;5049585;28;20391;-79
2023/06/02 03:10:13;;;;;;;6.20;3.92;;;;;;;15.37;29.65;101631.63;5046836;28;20597;-78
2023/06/02 03:12:43;;;;;;;7.03;4.15;;;;;;;15.34;29.55;101632.78;5037631;28;20033;-81
2023/06/02 03:15:12;;;;;;;6.10;4.15;;;;;;;15.34;29.70;101631.94;5056586;28;20044;-81
2023/06/02 03:17:41;;;;;;;7.75;4.40;;;;;;;15.29;29.88;101626.81;5042408;28;20036;-81
2023/06/02 03:20:12;;;;;;;7.80;5.65;;;;;;;15.31;29.67;101637.72;5041245;28;20040;-81
2023/06/02 03:22:44;;;;;;;7.75;5.07;;;;;;;15.25;29.86;101633.66;5036254;28;20037;-79
2023/06/02 03:25:12;;;;;;;7.70;5.13;;;;;;;15.24;29.77;101642.06;5053659;28;20036;-79
2023/06/02 03:27:41;;;;;;;11.38;5.85;;;;;;;15.19;29.89;101642.50;5033869;28;20060;-81
2023/06/02 03:30:10;;;;;;;8.60;6.30;;;;;;;15.16;29.35;101641.94;5061551;28;20063;-79
2023/06/02 03:32:39;;;;;;;8.23;6.82;;;;;;;15.12;29.77;101636.69;5042662;28;20040;-79
2023/06/02 03:35:09;;;;;;;8.93;6.55;;;;;;;15.09;29.45;101644.41;5061473;28;20113;-79
2023/06/02 03:37:41;;;;;;;6.78;6.05;;;;;;;15.05;29.89;101645.69;5051129;28;20398;-79
2023/06/02 03:40:10;;;;;;;8.77;5.90;;;;;;;15.03;29.31;101642.22;5041106;28;20037;-78
2023/06/02 03:42:39;;;;;;;8.23;5.47;;;;;;;15.00;29.73;101645.28;5045317;28;20040;-79
2023/06/02 03:45:10;;;;;;;7.90;5.63;;;;;;;14.98;29.51;101650.06;5055837;28;20064;-79
2023/06/02 03:47:39;;;;;;;9.05;5.43;;;;;;;14.97;29.74;101653.81;5043536;28;20099;-79
2023/06/02 03:50:10;;;;;;;8.48;5.90;;;;;;;14.95;29.88;101651.19;5028538;28;20051;-79
2023/06/02 03:52:41;;;;;;;9.30;5.70;;;;;;;14.94;29.34;101654.97;5041359;28;20045;-78
2023/06/02 03:55:10;;;;;;;7.78;5.63;;;;;;;14.91;29.24;101649.75;5033267;28;20095;-79
2023/06/02 03:57:39;;;;;;;7.88;5.43;;;;;;;14.89;29.04;101643.50;5046988;28;20049;-82
2023/06/02 04:00:10;;;;;;;6.47;5.35;;;;;;;14.85;29.31;101647.56;5040358;28;20278;-78
2023/06/02 04:02:42;;;;;;;8.23;5.50;;;;;;;14.81;29.65;101648.88;5057375;28;20052;-80
2023/06/02 04:05:14;;;;;;;7.38;4.72;;;;;;;14.75;29.05;101649.44;5034181;28;20427;-78
2023/06/02 04:07:46;;;;;;;7.68;4.75;;;;;;;14.78;29.61;101665.69;5046269;28;20045;-79
2023/06/02 04:10:15;;;;;;;9.43;5.28;;;;;;;14.72;29.61;101660.75;5034436;28;20045;-79
2023/06/02 04:12:43;;;;;;;5.95;4.65;;;;;;;14.69;29.34;101655.50;5042998;28;20432;-81
2023/06/02 04:15:12;;;;;;;6.18;5.03;;;;;;;14.69;29.44;101661.00;5028715;28;20041;-78
2023/06/02 04:17:40;;;;;;;7.07;4.72;;;;;;;14.70;29.56;101668.28;5045056;28;20113;-80
2023/06/02 04:20:09;;;;;;;6.82;5.20;;;;;;;14.67;29.71;101661.19;5051777;28;20116;-80
2023/06/02 04:22:38;;;;;;;7.28;5.20;;;;;;;14.66;29.50;101667.69;5041161;28;20094;-79
2023/06/02 04:25:08;;;;;;;7.75;5.03;;;;;;;14.70;29.64;101677.41;5034819;28;20048;-80
2023/06/02 04:27:36;;;;;;;7.00;5.20;;;;;;;14.69;29.47;101669.28;5038304;28;20045;-81
2023/06/02 04:30:05;;;;;;;8.07;5.40;;;;;;;14.70;29.62;101671.03;5034496;28;20036;-79
2023/06/02 04:36:34;;;;;;;8.90;5.82;;;;;;;14.67;29.96;101672.22;5052153;28;20053;-80
2023/06/02 04:39:03;;;;;;;6.07;5.40;;;;;;;14.65;29.75;101659.56;5069274;28;20044;-79
2023/06/02 04:41:32;;;;;;;8.18;5.75;;;;;;;14.65;29.51;101665.09;5059135;28;20086;-80
2023/06/02 04:44:01;;;;;;;7.30;5.60;;;;;;;14.63;29.33;101676.25;5058772;28;20041;-80
2023/06/02 04:46:29;;;;;;;10.45;6.45;;;;;;;14.60;29.33;101672.91;5063775;28;20049;-79
2023/06/02 04:48:57;;;;;;;8.02;5.88;;;;;;;14.58;29.76;101663.91;5065675;28;21459;-79
2023/06/02 04:51:27;;;;;;;8.60;5.72;;;;;;;14.56;29.67;101663.16;5044346;28;20041;-83
2023/06/02 04:53:55;;;;;;;6.35;5.07;;;;;;;14.52;29.88;101665.31;5036614;28;20051;-79
2023/06/02 04:56:27;;;;;;;8.38;4.90;;;;;;;14.51;29.56;101671.00;5037152;28;20057;-80
2023/06/02 04:58:57;;;;;;;9.32;4.95;;;;;;;14.49;29.92;101675.78;5051294;28;20092;-80
2023/06/02 05:01:25;;;;;;;9.32;4.95;;;;;;;14.43;29.60;101670.78;5028315;28;20447;-80
2023/06/02 05:03:53;;;;;;;7.55;5.65;;;;;;;14.41;29.60;101670.06;5061179;28;20169;-80
2023/06/02 05:06:21;;;;;;;8.85;5.75;;;;;;;14.39;29.99;101671.06;5043370;28;20052;-79
2023/06/02 05:08:50;;;;;;;7.60;6.10;;;;;;;14.38;30.23;101673.94;5048906;28;20631;-79
2023/06/02 05:11:18;;;;;;;10.10;6.32;;;;;;;14.38;29.67;101673.94;5037157;28;20057;-80
2023/06/02 05:13:47;;;;;;;10.48;6.35;;;;;;;14.36;30.26;101671.31;5034158;28;20060;-80
2023/06/02 05:16:17;;;;;;;8.50;6.93;;;;;;;14.35;29.99;101666.81;5031640;28;20045;-80
2023/06/02 05:18:46;;;;;;;9.27;5.80;;;;;;;14.35;30.00;101668.75;5034626;28;20052;-79
2023/06/02 05:21:15;;;;;;;7.10;5.75;;;;;;;14.36;29.79;101664.94;5050457;28;20041;-79
2023/06/02 05:23:43;;;;;;;8.18;6.22;;;;;;;14.36;30.19;101668.56;5032218;28;20047;-79
2023/06/02 05:26:11;;;;;;;8.30;5.88;;;;;;;14.35;30.01;101664.06;5049285;28;20045;-80
2023/06/02 05:28:40;;;;;;;8.98;6.35;;;;;;;14.38;30.27;101673.94;5033688;28;20429;-79
2023/06/02 05:31:09;;;;;;;8.85;6.35;;;;;;;14.37;30.23;101675.84;5036750;28;20116;-80
2023/06/02 05:33:38;;;;;;;7.07;6.05;;;;;;;14.41;30.44;101675.56;5036398;28;20416;-79
2023/06/02 05:36:06;;;;;;;8.73;6.20;;;;;;;14.39;30.54;101672.94;5034787;28;20469;-78
2023/06/02 05:38:35;;;;;;;6.25;5.32;;;;;;;14.38;30.30;101666.56;5055743;28;20045;-78
2023/06/02 05:41:03;;;;;;;9.45;5.50;;;;;;;14.41;30.31;101670.94;5036461;28;20040;-79
2023/06/02 05:43:30;;;;;;;9.10;5.80;;;;;;;14.40;30.04;101671.94;5040565;28;20072;-79
2023/06/02 05:45:58;;;;;;;8.88;6.13;;;;;;;14.43;29.93;101676.31;5044408;28;20102;-79
2023/06/02 05:48:26;;;;;;;8.77;6.18;;;;;;;14.42;30.38;101674.56;5032539;28;20051;-78
2023/06/02 05:50:57;;;;;;;7.60;6.07;;;;;;;14.45;30.28;101674.25;5047785;28;20041;-79
2023/06/02 05:53:26;;;;;;;8.27;6.43;;;;;;;14.42;30.09;101671.81;5049180;28;20047;-78
2023/06/02 05:55:54;;;;;;;7.97;5.65;;;;;;;14.44;30.15;101678.88;5044479;28;20127;-79
2023/06/02 05:58:22;;;;;;;7.88;6.15;;;;;;;14.45;30.22;101679.75;5058787;28;20072;-80
2023/06/02 06:00:50;;;;;;;6.72;5.88;;;;;;;14.46;30.60;101676.00;5042832;28;20520;-79
2023/06/02 06:03:18;;;;;;;9.23;6.80;;;;;;;14.47;30.33;101684.16;5055875;28;20050;-79
2023/06/02 06:05:46;;;;;;;9.10;6.55;;;;;;;14.48;30.31;101680.41;5043621;28;20079;-79
2023/06/02 06:08:16;;;;;;;8.13;6.43;;;;;;;14.48;30.15;101683.16;5058869;28;20040;-78
2023/06/02 06:10:44;;;;;;;9.05;6.32;;;;;;;14.46;30.17;101685.13;5039542;28;20519;-80
2023/06/02 06:13:15;;;;;;;7.22;6.25;;;;;;;14.46;30.36;101687.03;5055534;28;20033;-78
2023/06/02 06:15:47;;;;;;;9.80;6.53;;;;;;;14.44;30.22;101681.66;5059804;28;20045;-79
2023/06/02 06:18:15;;;;;;;7.60;5.70;;;;;;;14.42;30.75;101683.69;5068294;28;20044;-79
2023/06/02 06:20:45;;;;;;;7.10;6.38;;;;;;;14.42;30.44;101683.69;5047829;28;20534;-80
2023/06/02 06:23:13;;;;;;;9.55;6.47;;;;;;;14.40;30.16;101682.94;5060537;28;20668;-79
2023/06/02 06:25:44;;;;;;;9.40;6.35;;;;;;;14.41;30.30;101686.59;5050641;28;20071;-81
2023/06/02 06:28:12;;;;;;;8.35;6.68;;;;;;;14.38;30.36;101679.47;5045345;28;20033;-80
2023/06/02 06:30:41;;;;;;;8.38;7.00;;;;;;;14.38;30.30;101679.47;5065038;28;20048;-80
2023/06/02 06:33:09;;;;;;;9.02;6.38;;;;;;;14.37;30.30;101681.34;5042979;28;20515;-80
2023/06/02 06:35:37;;;;;;;8.00;6.10;;;;;;;14.37;30.79;101678.59;5039886;28;20063;-81
2023/06/02 06:38:08;;;;;;;8.02;6.03;;;;;;;14.38;30.39;101674.81;5066514;28;20040;-81
2023/06/02 06:40:36;;;;;;;8.73;5.90;;;;;;;14.39;30.96;101693.09;5063358;28;20479;-79
2023/06/02 06:43:05;;;;;;;7.07;5.88;;;;;;;14.42;30.76;101691.94;5034874;28;20045;-79
2023/06/02 06:46:11;;;;;;;8.52;5.20;;;;;;;14.39;30.48;101686.72;5060233;28;20045;-80
2023/06/02 06:48:39;;;;;;;7.45;5.05;;;;;;;14.42;30.99;101683.69;5057592;28;20053;-80
2023/06/02 06:51:07;;;;;;;9.23;6.20;;;;;;;14.44;30.58;101694.53;5046939;28;20063;-80
2023/06/02 06:56:46;;;;;;;10.85;6.38;;;;;;;14.45;30.56;101702.69;5020660;28;20041;-80
2023/06/02 06:59:19;;;;;;;7.83;6.10;;;;;;;14.49;30.91;101695.06;5040438;28;20056;-80
2023/06/02 07:01:47;;;;;;;8.75;6.88;;;;;;;14.53;30.77;101697.38;5067787;28;20705;-78
2023/06/02 07:04:14;;;;;;;9.82;6.57;;;;;;;14.55;30.90;101700.88;5049476;28;20051;-79
2023/06/02 07:06:42;;;;;;;9.15;6.07;;;;;;;14.58;30.56;101703.34;5046785;28;20087;-79
2023/06/02 07:09:11;;;;;;;9.10;6.85;;;;;;;14.59;30.76;101696.84;5056239;28;20044;-82
2023/06/02 07:11:39;;;;;;;8.15;6.07;;;;;;;14.63;30.48;101701.03;5040562;28;20057;-81
2023/06/02 07:14:07;;;;;;;8.82;6.50;;;;;;;14.65;30.58;101706.41;5042227;28;20488;-82
2023/06/02 07:16:52;;;;;;;9.40;6.07;;;;;;;14.71;30.57;101700.31;5035355;28;20080;-82
2023/06/02 07:19:20;;;;;;;8.98;6.82;;;;;;;14.70;30.72;101710.47;5055536;28;20056;-81
2023/06/02 07:21:48;;;;;;;9.38;6.45;;;;;;;14.72;30.49;101704.84;5050752;28;20053;-81
2023/06/02 07:24:16;;;;;;;10.27;6.60;;;;;;;14.74;30.24;101700.06;5064990;28;20052;-81
2023/06/02 07:26:45;;;;;;;8.48;6.32;;;;;;;14.75;30.37;101701.81;5042552;28;20473;-81
2023/06/02 07:29:13;;;;;;;10.05;6.60;;;;;;;14.75;30.32;101702.69;5040341;28;20053;-80
2023/06/02 07:31:43;;;;;;;8.32;6.32;;;;;;;14.76;30.54;101706.31;5048020;28;20060;-80
2023/06/02 07:34:13;;;;;;;7.55;5.93;;;;;;;14.79;30.23;101716.16;5061884;28;20037;-80
2023/06/02 07:36:42;;;;;;;8.18;6.05;;;;;;;14.78;30.29;101709.78;5035648;28;20049;-81
2023/06/02 07:39:10;;;;;;;7.57;5.88;;;;;;;14.81;30.28;101714.13;5041357;28;20076;-81
2023/06/02 07:41:38;;;;;;;6.60;5.88;;;;;;;14.84;30.64;101711.13;5048796;28;20077;-80
2023/06/02 07:44:06;;;;;;;9.27;6.22;;;;;;;14.85;30.31;101699.06;5062653;28;20503;-80
2023/06/02 07:46:34;;;;;;;10.45;7.03;;;;;;;14.87;30.13;101694.28;5041301;28;20040;-79
2023/06/02 07:49:02;;;;;;;7.75;6.50;;;;;;;14.88;30.30;101691.38;5046378;28;20045;-80
2023/06/02 07:51:32;;;;;;;9.32;7.10;;;;;;;14.92;30.04;101694.72;5041138;28;20045;-80
2023/06/02 07:54:00;;;;;;;8.35;6.30;;;;;;;14.92;30.26;101703.00;5039801;28;20037;-80
2023/06/02 07:56:27;;;;;;;10.23;6.57;;;;;;;14.94;30.09;101698.19;5043140;28;20045;-80
2023/06/02 07:58:55;;;;;;;8.07;6.22;;;;;;;14.94;30.36;101707.34;5035584;28;20144;-81
2023/06/02 08:01:23;;;;;;;9.65;6.45;;;;;;;14.95;30.59;101700.81;5035990;28;20045;-81
2023/06/02 08:03:51;;;;;;;8.40;5.97;;;;;;;14.94;30.08;101704.59;5037840;28;20503;-80
2023/06/02 08:06:19;;;;;;;7.68;5.47;;;;;;;14.97;30.49;101709.81;5053780;28;20055;-81
2023/06/02 08:08:48;;;;;;;10.02;5.75;;;;;;;14.96;30.33;101710.81;5045581;28;20404;-80
2023/06/02 08:11:17;;;;;;;7.93;6.18;;;;;;;14.95;30.11;101699.94;5052499;28;20085;-81
2023/06/02 08:13:44;;;;;;;8.15;5.05;;;;;;;14.92;29.82;101706.63;5034730;28;20160;-80
2023/06/02 08:16:13;;;;;;;7.13;4.70;;;;;;;14.88;29.67;101705.16;5038884;28;20087;-81
2023/06/02 08:18:55;;;;;;;8.18;4.45;;;;;;;14.87;29.88;101705.28;5039160;28;20059;-80
2023/06/02 08:21:23;;;;;;;12.00;5.60;;;;;;;14.86;29.97;101701.66;5056793;28;20072;-80
2023/06/02 08:23:53;;;;;;;8.00;5.18;;;;;;;14.90;30.37;101705.91;5030515;28;20558;-79
2023/06/02 08:26:22;;;;;;;7.38;4.88;;;;;;;14.91;30.12;101707.66;5028041;28;20504;-79
2023/06/02 08:28:53;;;;;;;8.18;5.22;;;;;;;14.95;30.49;101713.72;5046949;28;20095;-79
2023/06/02 08:31:22;;;;;;;11.18;5.40;;;;;;;14.92;30.24;101709.38;5035226;28;20049;-79
2023/06/02 08:33:52;;;;;;;7.15;5.40;;;;;;;14.96;30.16;101710.81;5038563;28;20051;-80
2023/06/02 08:36:20;;;;;;;9.07;4.90;;;;;;;14.98;29.96;101706.06;5032966;28;21021;-80
2023/06/02 08:38:51;;;;;;;8.82;5.00;;;;;;;15.01;30.19;101711.25;5051635;28;20037;-80
2023/06/02 08:41:21;;;;;;;8.63;5.40;;;;;;;15.04;29.87;101710.13;5035791;28;20615;-79
2023/06/02 08:43:49;;;;;;;7.22;5.10;;;;;;;15.03;30.09;101705.63;5038540;28;20052;-79
2023/06/02 08:46:17;;;;;;;8.13;5.10;;;;;;;15.05;29.67;101711.88;5056761;28;20469;-78
2023/06/02 08:48:46;;;;;;;7.07;4.90;;;;;;;15.05;29.68;101707.22;5037460;28;20049;-78
2023/06/02 08:51:21;;;;;;;8.07;5.18;;;;;;;15.07;29.66;101707.97;5036577;28;20056;-79
2023/06/02 08:53:49;;;;;;;8.48;5.85;;;;;;;15.07;29.96;101709.84;5034239;28;20045;-80
2023/06/02 08:56:17;;;;;;;6.25;4.57;;;;;;;15.09;29.67;101703.16;5034869;28;20080;-79
2023/06/02 08:58:48;;;;;;;6.72;4.78;;;;;;;15.13;29.98;101706.50;5054721;28;20125;-80
2023/06/02 09:01:16;;;;;;;7.68;4.50;;;;;;;15.15;29.82;101710.00;5033915;28;20588;-79
2023/06/02 09:03:47;;;;;;;6.40;4.53;;;;;;;15.22;29.55;101708.41;5028828;28;20072;-80
2023/06/02 09:06:21;;;;;;;5.82;4.45;;;;;;;15.28;29.92;101712.47;5050247;28;20536;-80
2023/06/02 09:08:56;;;;;;;6.55;4.43;;;;;;;15.32;30.36;101706.53;5049281;28;20045;-81
2023/06/02 09:11:25;;;;;;;8.38;4.75;;;;;;;15.39;29.92;101706.84;5034238;28;20140;-80
2023/06/02 09:13:56;;;;;;;6.32;4.07;;;;;;;15.48;29.94;101708.72;5048907;28;20088;-80
2023/06/02 09:16:35;;;;;;;6.93;4.20;;;;;;;15.55;30.28;101709.00;5049237;28;20065;-80
2023/06/02 09:19:03;;;;;;;10.32;4.60;;;;;;;15.62;29.89;101707.41;5033195;28;20139;-80
2023/06/02 09:21:32;;;;;;;6.25;3.83;;;;;;;15.69;29.97;101706.66;5049150;28;20132;-81
2023/06/02 09:24:02;;;;;;;6.97;4.07;;;;;;;15.75;29.77;101700.59;5035212;28;20113;-81
2023/06/02 09:26:34;;;;;;;7.70;3.92;;;;;;;15.80;30.00;101709.28;5030831;28;20103;-80
2023/06/02 09:29:07;;;;;;;6.50;3.70;;;;;;;15.91;29.26;101705.47;5052548;28;20116;-81
2023/06/02 09:31:46;;;;;;;6.65;4.10;;;;;;;15.98;29.14;101709.38;5031928;28;20081;-80
2023/06/02 09:34:15;;;;;;;7.30;3.92;;;;;;;15.97;29.24;101699.34;5033956;28;20102;-80
2023/06/02 09:36:45;;;;;;;7.90;4.90;;;;;;;16.02;29.21;101696.13;5027971;28;20061;-81
2023/06/02 09:39:13;;;;;;;6.45;4.70;;;;;;;16.06;29.59;101701.22;5035872;28;20055;-80
2023/06/02 09:41:41;;;;;;;7.05;4.80;;;;;;;16.11;29.06;101704.41;5032761;28;20052;-79
2023/06/02 09:44:15;;;;;;;7.93;5.63;;;;;;;16.13;28.62;101691.31;5031406;28;20500;-81
2023/06/02 09:46:45;;;;;;;7.82;5.47;;;;;;;16.17;29.12;101708.47;5033972;28;20131;-80
2023/06/02 09:49:13;;;;;;;9.15;5.03;;;;;;;16.15;28.77;101708.63;5053474;28;20481;-81
2023/06/02 09:51:41;;;;;;;7.57;4.70;;;;;;;16.19;29.24;101693.50;5030482;28;20052;-80
2023/06/02 09:54:09;;;;;;;5.30;3.90;;;;;;;16.23;28.84;101694.94;5030675;28;20052;-81
2023/06/02 09:56:38;;;;;;;7.47;4.63;;;;;;;16.29;29.22;101693.47;5036502;28;20040;-81
2023/06/02 09:59:07;;;;;;;7.03;4.20;;;;;;;16.29;28.89;101692.59;5053007;28;20086;-81
2023/06/02 10:01:37;;;;;;;8.45;4.15;;;;;;;16.36;29.19;101688.19;5029043;28;20033;-80
2023/06/02 10:04:07;;;;;;;7.28;4.10;;;;;;;16.35;28.99;101686.47;5046286;28;20052;-80
2023/06/02 10:06:48;;;;;;;6.45;3.72;;;;;;;16.42;28.35;101685.69;5033178;28;20091;-81
2023/06/02 10:09:28;;;;;;;6.50;3.95;;;;;;;16.47;28.59;101686.13;5047583;28;20044;-81
2023/06/02 10:12:12;;;;;;;5.25;3.63;;;;;;;16.55;28.50;101675.16;5037878;28;20041;-81
2023/06/02 10:14:59;;;;;;;7.82;4.25;;;;;;;16.57;27.97;101675.03;5036025;28;20037;-82
2023/06/02 10:17:44;;;;;;;6.88;4.00;;;;;;;16.62;28.06;101676.28;5035671;28;20087;-81
2023/06/02 10:20:25;;;;;;;6.35;3.85;;;;;;;16.73;28.49;101675.22;5032345;28;20048;-82
2023/06/02 10:23:18;;;;;;;5.55;3.92;;;;;;;16.79;28.54;101670.94;5051187;28;20191;-80
2023/06/02 10:26:05;;;;;;;7.15;3.63;;;;;;;16.89;28.71;101672.63;5049524;28;20131;-82
2023/06/02 10:28:34;;;;;;;6.57;4.25;;;;;;;16.94;28.84;101659.19;5047179;28;20045;-81
2023/06/02 10:31:07;;;;;;;6.57;3.97;;;;;;;17.02;27.91;101672.28;5047522;28;20044;-80
2023/06/02 10:33:45;;;;;;;8.10;3.90;;;;;;;17.12;27.70;101670.31;5045628;28;20063;-81
2023/06/02 10:36:17;;;;;;;6.70;3.50;;;;;;;17.16;28.41;101670.84;5057121;28;20041;-82
2023/06/02 10:38:46;;;;;;;7.35;3.97;;;;;;;17.22;28.33;101670.25;5035598;28;20048;-82
2023/06/02 10:41:16;;;;;;;5.93;3.80;;;;;;;17.28;28.02;101659.41;5037351;28;20049;-81
2023/06/02 10:44:14;;;;;;;5.55;3.47;;;;;;;17.40;28.52;101663.66;5055594;28;20083;-83
2023/06/02 10:46:42;;;;;;;7.03;3.55;;;;;;;17.39;27.98;101656.41;5028827;28;20121;-82
2023/06/02 10:49:50;;;;;;;5.63;3.25;;;;;;;17.49;27.00;101655.41;5030951;28;20037;-81
2023/06/02 10:52:20;;;;;;;5.95;3.15;;;;;;;17.55;27.51;101657.56;5048100;28;20049;-82
2023/06/02 10:55:28;;;;;;;7.50;3.50;;;;;;;17.58;27.30;101658.09;5034620;28;20056;-82
2023/06/02 10:57:56;;;;;;;4.93;2.85;;;;;;;17.65;28.26;101650.00;5034120;28;20042;-82
2023/06/02 11:00:49;;;;;;;6.03;2.80;;;;;;;17.70;27.47;101658.72;5061311;28;20080;-82
2023/06/02 11:03:34;;;;;;;5.05;2.80;;;;;;;17.79;27.96;101654.13;5042840;28;20419;-80
2023/06/02 11:06:20;;;;;;;6.82;3.17;;;;;;;17.86;27.38;101642.25;5033282;28;20504;-80
2023/06/02 11:08:51;;;;;;;6.90;3.70;;;;;;;17.91;27.60;101650.03;5050513;28;20045;-81
2023/06/02 11:11:54;;;;;;;6.40;3.50;;;;;;;17.97;27.28;101646.66;5056870;28;20127;-81
2023/06/02 11:14:23;;;;;;;5.70;2.90;;;;;;;18.01;27.96;101625.88;5051967;28;20045;-80
2023/06/02 11:17:30;;;;;;;6.32;3.35;;;;;;;18.08;28.02;101627.81;5035408;28;20038;-80
2023/06/02 11:19:59;;;;;;;5.68;3.03;;;;;;;18.18;27.97;101630.47;5022428;28;20135;-81
2023/06/02 11:22:29;;;;;;;6.18;3.70;;;;;;;18.28;27.84;101630.34;5054142;28;20455;-81
2023/06/02 11:24:57;;;;;;;6.88;3.97;;;;;;;18.30;27.42;101631.94;5037098;28;20076;-80
2023/06/02 11:27:39;;;;;;;6.13;3.50;;;;;;;18.41;26.64;101636.28;5039436;28;20101;-80
2023/06/02 11:30:09;;;;;;;6.25;3.75;;;;;;;18.41;27.06;101639.06;5032955;28;20124;-81
2023/06/02 11:32:38;;;;;;;5.80;3.20;;;;;;;18.50;27.80;101652.81;5035997;28;20133;-81
2023/06/02 11:35:09;;;;;;;5.57;3.22;;;;;;;18.59;27.83;101630.69;5051898;28;20045;-82
2023/06/02 11:37:40;;;;;;;5.43;2.88;;;;;;;18.66;27.66;101638.16;5034044;28;20160;-82
2023/06/02 11:40:11;;;;;;;8.65;3.72;;;;;;;18.68;27.65;101638.00;5030652;28;20058;-81
2023/06/02 11:42:41;;;;;;;7.55;3.60;;;;;;;18.73;27.27;101630.88;5056719;28;20037;-82
2023/06/02 11:45:20;;;;;;;5.90;3.40;;;;;;;18.81;27.47;101636.44;5036463;28;20049;-80
2023/06/02 11:47:56;;;;;;;6.55;3.60;;;;;;;18.87;27.52;101635.81;5038553;28;20803;-82